createdAt,value
2023-01-25T00:00:44.921Z,12.00
2023-01-25T00:03:13.500Z,12.53
2023-01-25T00:05:42.168Z,13.67
2023-01-25T00:08:10.730Z,12.87
2023-01-25T00:10:39.319Z,12.40
2023-01-25T00:13:07.898Z,11.70
2023-01-25T00:15:37.819Z,13.13
2023-01-25T00:18:06.447Z,13.20
2023-01-25T00:20:35.043Z,13.23
2023-01-25T00:23:03.707Z,12.63
2023-01-25T00:25:32.277Z,12.93
2023-01-25T00:28:00.861Z,13.53
2023-01-25T00:30:29.516Z,11.90
2023-01-25T00:33:04.531Z,12.67
2023-01-25T00:35:33.465Z,12.33
2023-01-25T00:38:03.559Z,11.47
2023-01-25T00:40:32.104Z,12.37
2023-01-25T00:43:01.616Z,12.00
2023-01-25T00:45:30.231Z,12.60
2023-01-25T00:47:58.804Z,12.77
2023-01-25T00:50:28.720Z,12.57
2023-01-25T00:52:57.279Z,13.30
2023-01-25T00:55:25.951Z,13.47
2023-01-25T00:57:54.569Z,13.43
2023-01-25T01:00:23.275Z,12.53
2023-01-25T01:02:51.928Z,12.63
2023-01-25T01:05:20.654Z,12.77
2023-01-25T01:07:51.995Z,13.47
2023-01-25T01:10:20.580Z,12.77
2023-01-25T01:12:49.155Z,13.13
2023-01-25T01:15:17.702Z,13.00
2023-01-25T01:17:46.221Z,12.60
2023-01-25T01:20:15.277Z,12.57
2023-01-25T01:22:43.865Z,13.57
2023-01-25T01:25:14.168Z,13.33
2023-01-25T01:27:42.704Z,13.63
2023-01-25T01:30:12.057Z,12.27
2023-01-25T01:32:40.697Z,12.83
2023-01-25T01:35:09.998Z,12.40
2023-01-25T01:37:38.693Z,12.97
2023-01-25T01:40:07.882Z,13.13
2023-01-25T01:42:57.264Z,12.87
2023-01-25T01:45:51.229Z,12.87
2023-01-25T01:48:22.060Z,12.73
2023-01-25T01:50:53.012Z,11.93
2023-01-25T01:53:22.400Z,12.80
2023-01-25T01:55:50.929Z,12.93
2023-01-25T01:58:21.224Z,12.90
2023-01-25T02:00:49.926Z,11.70
2023-01-25T02:03:18.736Z,11.50
2023-01-25T02:05:49.394Z,11.27
2023-01-25T02:08:18.442Z,12.13
2023-01-25T02:10:47.764Z,11.73
2023-01-25T02:13:16.353Z,12.20
2023-01-25T02:15:47.604Z,12.80
2023-01-25T02:18:16.434Z,12.07
2023-01-25T02:20:45.511Z,12.83
2023-01-25T02:23:18.498Z,12.37
2023-01-25T02:25:48.712Z,12.27
2023-01-25T02:28:18.392Z,12.00
2023-01-25T02:30:47.616Z,12.27
2023-01-25T02:33:16.243Z,11.83
2023-01-25T02:35:46.322Z,12.50
2023-01-25T02:38:15.765Z,11.90
2023-01-25T02:40:46.918Z,12.90
2023-01-25T02:43:17.305Z,12.00
2023-01-25T02:45:46.972Z,11.87
2023-01-25T02:48:15.531Z,12.73
2023-01-25T02:50:45.128Z,12.60
2023-01-25T02:53:13.673Z,12.77
2023-01-25T02:55:42.210Z,13.13
2023-01-25T02:58:10.787Z,12.73
2023-01-25T03:00:40.715Z,14.57
2023-01-25T03:03:09.276Z,14.20
2023-01-25T03:05:37.870Z,13.87
2023-01-25T03:08:06.634Z,14.63
2023-01-25T03:10:35.480Z,12.87
2023-01-25T03:13:04.081Z,14.33
2023-01-25T03:15:32.596Z,13.20
2023-01-25T03:18:04.367Z,13.80
2023-01-25T03:20:33.131Z,13.57
2023-01-25T03:23:01.635Z,12.60
2023-01-25T03:25:30.244Z,13.90
2023-01-25T03:27:58.810Z,12.90
2023-01-25T03:30:27.436Z,14.43
2023-01-25T03:32:56.053Z,14.20
2023-01-25T03:35:26.014Z,14.73
2023-01-25T03:37:54.539Z,14.77
2023-01-25T03:40:23.111Z,14.10
2023-01-25T03:42:53.499Z,14.33
2023-01-25T03:45:22.082Z,14.53
2023-01-25T03:47:50.673Z,14.30
2023-01-25T03:50:19.303Z,13.67
2023-01-25T03:53:09.904Z,14.07
2023-01-25T03:55:38.481Z,13.53
2023-01-25T03:58:06.963Z,13.90
2023-01-25T04:00:35.622Z,14.63
2023-01-25T04:03:04.208Z,13.00
2023-01-25T04:05:32.753Z,14.23
2023-01-25T04:08:02.635Z,14.63
2023-01-25T04:10:31.233Z,14.20
2023-01-25T04:12:59.780Z,13.60
2023-01-25T04:15:28.338Z,13.77
2023-01-25T04:17:57.243Z,13.60
2023-01-25T04:20:25.841Z,13.33
2023-01-25T04:22:54.457Z,13.10
2023-01-25T04:25:24.356Z,13.10
2023-01-25T04:27:53.057Z,13.30
2023-01-25T04:30:21.850Z,13.90
2023-01-25T04:32:50.516Z,14.43
2023-01-25T04:35:20.353Z,12.90
2023-01-25T04:37:54.504Z,12.97
2023-01-25T04:40:24.374Z,13.57
2023-01-25T04:42:52.954Z,13.03
2023-01-25T04:45:21.529Z,13.47
2023-01-25T04:47:50.134Z,13.70
2023-01-25T04:50:18.753Z,12.93
2023-01-25T04:52:47.358Z,13.57
2023-01-25T04:55:16.053Z,13.30
2023-01-25T04:57:46.089Z,12.83
2023-01-25T05:00:15.001Z,12.27
2023-01-25T05:02:44.130Z,12.83
2023-01-25T05:05:12.944Z,12.77
2023-01-25T05:07:41.501Z,11.17
2023-01-25T05:10:10.904Z,12.50
2023-01-25T05:12:39.553Z,12.63
2023-01-25T05:15:10.432Z,11.63
2023-01-25T05:17:39.204Z,11.27
2023-01-25T05:20:08.246Z,11.67
2023-01-25T05:22:36.789Z,11.70
2023-01-25T05:25:25.669Z,11.20
2023-01-25T05:27:53.284Z,10.93
2023-01-25T05:30:23.313Z,10.70
2023-01-25T05:32:52.167Z,11.23
2023-01-25T05:35:20.741Z,10.80
2023-01-25T05:37:49.294Z,10.00
2023-01-25T05:40:17.895Z,9.47
2023-01-25T05:42:46.500Z,10.63
2023-01-25T05:45:15.074Z,10.27
2023-01-25T05:47:44.979Z,10.23
2023-01-25T05:50:13.538Z,10.13
2023-01-25T05:52:42.065Z,10.83
2023-01-25T05:55:13.173Z,10.77
2023-01-25T05:57:42.701Z,10.47
2023-01-25T06:00:12.377Z,10.70
2023-01-25T06:02:41.044Z,10.07
2023-01-25T06:05:11.870Z,9.73
2023-01-25T06:07:40.794Z,9.97
2023-01-25T06:10:10.001Z,9.93
2023-01-25T06:12:39.692Z,10.30
2023-01-25T06:15:09.017Z,10.20
2023-01-25T06:17:37.745Z,10.67
2023-01-25T06:20:06.861Z,10.60
2023-01-25T06:22:36.740Z,9.80
2023-01-25T06:25:05.488Z,9.93
2023-01-25T06:27:34.048Z,10.27
2023-01-25T06:30:02.643Z,9.73
2023-01-25T06:32:33.713Z,10.43
2023-01-25T06:35:02.278Z,9.70
2023-01-25T06:37:30.909Z,9.47
2023-01-25T06:40:00.831Z,10.53
2023-01-25T06:42:29.451Z,9.67
2023-01-25T06:44:57.995Z,10.00
2023-01-25T06:47:26.573Z,11.07
2023-01-25T06:49:55.198Z,9.47
2023-01-25T06:52:23.783Z,10.03
2023-01-25T06:54:52.352Z,11.97
2023-01-25T06:57:22.243Z,10.20
2023-01-25T06:59:51.979Z,10.27
2023-01-25T07:02:20.627Z,10.23
2023-01-25T07:04:49.656Z,11.17
2023-01-25T07:07:18.236Z,10.90
2023-01-25T07:09:46.852Z,11.17
2023-01-25T07:12:15.410Z,9.93
2023-01-25T07:14:45.327Z,11.10
2023-01-25T07:17:13.905Z,10.97
2023-01-25T07:19:42.475Z,11.50
2023-01-25T07:22:11.025Z,10.57
2023-01-25T07:24:39.558Z,10.93
2023-01-25T07:27:08.173Z,10.67
2023-01-25T07:29:36.711Z,10.57
2023-01-25T07:32:07.213Z,10.87
2023-01-25T07:34:36.227Z,11.00
2023-01-25T07:37:04.821Z,10.50
2023-01-25T07:39:33.399Z,11.50
2023-01-25T07:42:02.018Z,12.03
2023-01-25T07:44:30.590Z,11.37
2023-01-25T07:46:59.203Z,10.77
2023-01-25T07:49:29.129Z,10.47
2023-01-25T07:51:57.680Z,11.87
2023-01-25T07:54:26.256Z,11.67
2023-01-25T07:56:54.821Z,12.33
2023-01-25T07:59:23.357Z,10.83
2023-01-25T08:01:51.935Z,11.70
2023-01-25T08:04:20.560Z,12.63
2023-01-25T08:06:50.508Z,12.60
2023-01-25T08:09:20.460Z,12.47
2023-01-25T08:11:49.689Z,12.13
2023-01-25T08:14:18.383Z,12.13
2023-01-25T08:16:46.967Z,12.50
2023-01-25T08:19:15.932Z,11.90
2023-01-25T08:21:44.586Z,12.57
2023-01-25T08:24:16.582Z,13.73
2023-01-25T08:26:46.173Z,12.63
2023-01-25T08:29:14.892Z,11.83
2023-01-25T08:31:45.237Z,13.30
2023-01-25T08:34:14.974Z,13.57
2023-01-25T08:36:43.558Z,12.60
2023-01-25T08:39:13.428Z,13.43
2023-01-25T08:41:43.595Z,13.17
2023-01-25T08:44:12.471Z,13.50
2023-01-25T08:46:41.115Z,12.60
2023-01-25T08:49:11.298Z,12.87
2023-01-25T08:51:39.870Z,12.00
2023-01-25T08:54:12.462Z,13.93
2023-01-25T08:56:41.427Z,11.50
2023-01-25T08:59:12.543Z,13.93
2023-01-25T09:01:41.199Z,13.27
2023-01-25T09:04:09.841Z,12.40
2023-01-25T09:06:38.496Z,13.30
2023-01-25T09:09:08.415Z,12.57
2023-01-25T09:11:38.100Z,13.73
2023-01-25T09:14:06.741Z,13.07
2023-01-25T09:16:36.661Z,13.43
2023-01-25T09:19:06.282Z,12.73
2023-01-25T09:21:37.060Z,13.07
2023-01-25T09:24:07.274Z,12.40
2023-01-25T09:26:37.304Z,12.53
2023-01-25T09:29:07.622Z,13.77
2023-01-25T09:31:40.206Z,11.97
2023-01-25T09:34:09.928Z,12.90
2023-01-25T09:36:38.591Z,12.37
2023-01-25T09:39:07.591Z,12.60
2023-01-25T09:41:42.524Z,12.67
2023-01-25T09:44:20.550Z,12.13
2023-01-25T09:46:52.495Z,13.00
2023-01-25T09:49:26.808Z,13.33
2023-01-25T09:52:01.883Z,13.73
2023-01-25T09:54:33.743Z,14.07
2023-01-25T09:57:04.789Z,13.17
2023-01-25T09:59:33.721Z,14.30
2023-01-25T10:02:04.866Z,13.60
2023-01-25T10:04:37.602Z,13.40
2023-01-25T10:07:13.087Z,13.13
2023-01-25T10:09:43.842Z,13.13
2023-01-25T10:12:16.388Z,12.53
2023-01-25T10:14:44.975Z,11.67
2023-01-25T10:17:19.848Z,11.97
2023-01-25T10:19:57.581Z,12.23
2023-01-25T10:22:29.905Z,11.33
2023-01-25T10:25:07.848Z,12.73
2023-01-25T10:27:40.920Z,12.10
2023-01-25T10:30:21.347Z,12.33
2023-01-25T10:32:56.058Z,11.83
2023-01-25T10:35:35.502Z,11.90
2023-01-25T10:38:07.321Z,12.23
2023-01-25T10:40:39.239Z,11.07
2023-01-25T10:43:10.209Z,10.70
2023-01-25T10:45:39.324Z,11.07
2023-01-25T10:48:10.885Z,12.13
2023-01-25T10:50:46.766Z,12.07
2023-01-25T10:53:23.121Z,11.60
2023-01-25T10:56:02.619Z,12.30
2023-01-25T10:58:32.490Z,11.07
2023-01-25T11:01:01.504Z,12.57
2023-01-25T11:03:38.181Z,10.73
2023-01-25T11:06:07.154Z,11.53
2023-01-25T11:08:37.422Z,12.27
2023-01-25T11:11:17.345Z,12.00
2023-01-25T11:13:45.876Z,11.90
2023-01-25T11:16:25.389Z,12.33
2023-01-25T11:18:56.021Z,11.53
2023-01-25T11:21:25.708Z,11.73
2023-01-25T11:24:01.660Z,11.40
2023-01-25T11:26:30.625Z,11.60
2023-01-25T11:29:10.927Z,11.80
2023-01-25T11:31:41.731Z,11.80
2023-01-25T11:34:13.045Z,13.33
2023-01-25T11:36:51.503Z,12.23
2023-01-25T11:39:28.198Z,13.40
2023-01-25T11:42:05.002Z,12.37
2023-01-25T11:44:54.243Z,12.83
2023-01-25T11:47:32.576Z,12.50
2023-01-25T11:50:09.452Z,12.73
2023-01-25T11:52:44.962Z,12.20
2023-01-25T11:55:21.223Z,12.87
2023-01-25T11:57:56.525Z,12.07
2023-01-25T12:00:32.068Z,13.07
2023-01-25T12:03:09.547Z,12.63
2023-01-25T12:05:45.565Z,11.87
2023-01-25T12:08:20.822Z,12.57
2023-01-25T12:10:52.994Z,13.20
2023-01-25T12:13:25.911Z,12.30
2023-01-25T12:16:03.194Z,12.13
2023-01-25T12:18:43.806Z,14.40
2023-01-25T12:21:30.621Z,13.33
2023-01-25T12:24:05.983Z,13.23
2023-01-25T12:26:37.540Z,14.83
2023-01-25T12:29:07.434Z,13.87
2023-01-25T12:31:44.398Z,13.27
2023-01-25T12:34:16.466Z,13.03
2023-01-25T12:36:47.627Z,13.83
2023-01-25T12:39:19.413Z,13.90
2023-01-25T12:41:51.818Z,13.10
2023-01-25T12:44:21.706Z,12.23
2023-01-25T12:46:54.587Z,13.47
2023-01-25T12:49:26.825Z,13.23
2023-01-25T12:51:57.956Z,14.27
2023-01-25T12:54:30.181Z,14.43
2023-01-25T12:57:05.001Z,13.47
2023-01-25T12:59:37.064Z,12.97
2023-01-25T13:02:12.008Z,13.97
2023-01-25T13:04:46.829Z,14.73
2023-01-25T13:07:19.523Z,12.97
2023-01-25T13:09:53.824Z,12.93
2023-01-25T13:12:24.505Z,13.53
2023-01-25T13:14:53.094Z,13.47
2023-01-25T13:17:23.624Z,13.90
2023-01-25T13:19:53.332Z,14.43
2023-01-25T13:22:42.817Z,14.20
2023-01-25T13:25:21.109Z,14.07
2023-01-25T13:27:49.757Z,13.87
2023-01-25T13:30:29.525Z,15.13
2023-01-25T13:32:59.574Z,13.60
2023-01-25T13:35:29.343Z,14.43
2023-01-25T13:38:02.288Z,14.00
2023-01-25T13:40:34.215Z,12.93
2023-01-25T13:43:03.893Z,14.10
2023-01-25T13:45:33.565Z,12.30
2023-01-25T13:48:04.923Z,13.27
2023-01-25T13:50:36.295Z,13.27
2023-01-25T13:53:05.775Z,13.67
2023-01-25T13:55:41.619Z,12.87
2023-01-25T13:58:10.848Z,13.87
2023-01-25T14:00:39.476Z,13.87
2023-01-25T14:03:08.138Z,13.77
2023-01-25T14:05:36.769Z,14.30
2023-01-25T14:08:05.385Z,13.83
2023-01-25T14:10:34.043Z,13.13
2023-01-25T14:13:03.942Z,13.73
2023-01-25T14:15:33.496Z,15.03
2023-01-25T14:18:19.827Z,13.90
2023-01-25T14:20:49.317Z,13.20
2023-01-25T14:23:22.411Z,14.10
2023-01-25T14:25:51.083Z,13.90
2023-01-25T14:28:21.050Z,14.20
2023-01-25T14:30:52.750Z,13.37
2023-01-25T14:33:23.726Z,13.03
2023-01-25T14:36:00.090Z,13.03
2023-01-25T14:38:32.911Z,12.53
2023-01-25T14:41:03.943Z,13.57
2023-01-25T14:43:34.017Z,13.10
2023-01-25T14:46:02.644Z,13.47
2023-01-25T14:48:38.153Z,14.40
2023-01-25T14:51:08.166Z,12.57
2023-01-25T14:53:40.419Z,13.60
2023-01-25T14:56:15.964Z,14.20
2023-01-25T14:58:50.815Z,14.40
2023-01-25T15:01:32.263Z,14.17
2023-01-25T15:04:00.958Z,14.10
2023-01-25T15:06:29.705Z,15.67
2023-01-25T15:08:58.324Z,14.97
2023-01-25T15:11:45.368Z,15.73
2023-01-25T15:14:18.283Z,14.43
2023-01-25T15:16:46.905Z,16.17
2023-01-25T15:19:25.402Z,16.00
2023-01-25T15:21:55.729Z,15.40
2023-01-25T15:24:24.553Z,14.87
2023-01-25T15:26:53.889Z,15.03
2023-01-25T15:29:26.876Z,15.63
2023-01-25T15:31:56.642Z,14.80
2023-01-25T15:34:29.162Z,15.90
2023-01-25T15:36:57.738Z,16.40
2023-01-25T15:39:26.352Z,15.53
2023-01-25T15:41:54.911Z,15.57
2023-01-25T15:44:25.873Z,14.63
2023-01-25T15:46:54.479Z,14.57
2023-01-25T15:49:25.928Z,14.97
2023-01-25T15:51:54.566Z,14.43
2023-01-25T15:54:24.302Z,15.07
2023-01-25T15:56:53.530Z,14.60
2023-01-25T15:59:22.320Z,14.70
2023-01-25T16:01:52.326Z,13.67
2023-01-25T16:04:20.919Z,13.40
2023-01-25T16:06:50.724Z,12.80
2023-01-25T16:09:21.083Z,13.43
2023-01-25T16:11:50.882Z,12.37
2023-01-25T16:14:19.861Z,12.73
2023-01-25T16:16:50.090Z,13.00
2023-01-25T16:19:21.316Z,12.43
2023-01-25T16:21:50.396Z,12.43
2023-01-25T16:24:19.506Z,12.87
2023-01-25T16:26:50.143Z,13.37
2023-01-25T16:29:18.730Z,11.40
2023-01-25T16:31:47.369Z,10.63
2023-01-25T16:34:16.270Z,10.93
2023-01-25T16:36:50.197Z,10.03
2023-01-25T16:39:20.447Z,10.00
2023-01-25T16:41:49.260Z,10.67
2023-01-25T16:44:18.402Z,11.40
2023-01-25T16:46:47.367Z,10.80
2023-01-25T16:49:19.547Z,11.03
2023-01-25T16:51:50.416Z,9.43
2023-01-25T16:54:20.388Z,10.20
2023-01-25T16:56:49.724Z,10.87
2023-01-25T16:59:18.856Z,11.33
2023-01-25T17:01:47.846Z,9.83
2023-01-25T17:04:16.737Z,9.53
2023-01-25T17:06:46.917Z,9.97
2023-01-25T17:09:24.949Z,10.07
2023-01-25T17:11:54.306Z,9.37
2023-01-25T17:14:23.464Z,10.10
2023-01-25T17:16:55.438Z,10.83
2023-01-25T17:19:25.079Z,10.90
2023-01-25T17:21:53.744Z,10.20
2023-01-25T17:24:23.685Z,11.03
2023-01-25T17:26:52.551Z,9.90
2023-01-25T17:29:21.753Z,10.80
2023-01-25T17:31:50.393Z,10.33
2023-01-25T17:34:19.815Z,10.70
2023-01-25T17:36:48.464Z,11.90
2023-01-25T17:39:18.126Z,10.60
2023-01-25T17:41:49.033Z,12.53
2023-01-25T17:44:20.138Z,11.17
2023-01-25T17:46:48.938Z,11.97
2023-01-25T17:49:18.190Z,12.37
2023-01-25T17:51:47.331Z,11.93
2023-01-25T17:54:15.982Z,11.10
2023-01-25T17:56:44.665Z,11.37
2023-01-25T17:59:14.515Z,11.03
2023-01-25T18:01:43.645Z,11.60
2023-01-25T18:04:13.226Z,11.30
2023-01-25T18:06:41.944Z,10.23
2023-01-25T18:09:10.482Z,9.73
2023-01-25T18:11:40.788Z,9.83
2023-01-25T18:14:10.532Z,9.73
2023-01-25T18:16:41.465Z,9.13
2023-01-25T18:19:10.612Z,9.37
2023-01-25T18:21:40.631Z,9.93
2023-01-25T18:24:22.516Z,10.17
2023-01-25T18:26:52.108Z,9.17
2023-01-25T18:29:35.611Z,8.87
2023-01-25T18:32:06.533Z,9.03
2023-01-25T18:34:35.211Z,8.70
2023-01-25T18:37:19.168Z,8.90
2023-01-25T18:39:48.023Z,8.43
2023-01-25T18:42:16.781Z,8.20
2023-01-25T18:44:48.241Z,9.23
2023-01-25T18:47:19.330Z,9.47
2023-01-25T18:49:49.145Z,8.87
2023-01-25T18:52:18.329Z,8.57
2023-01-25T18:54:47.219Z,9.43
2023-01-25T18:57:16.330Z,9.50
2023-01-25T18:59:45.345Z,9.40
2023-01-25T19:02:14.321Z,10.07
2023-01-25T19:04:45.510Z,9.53
2023-01-25T19:07:14.233Z,9.47
2023-01-25T19:09:43.550Z,10.10
2023-01-25T19:12:12.373Z,10.33
2023-01-25T19:14:41.041Z,10.40
2023-01-25T19:17:09.869Z,11.30
2023-01-25T19:19:38.670Z,11.53
2023-01-25T19:22:08.712Z,10.17
2023-01-25T19:24:37.576Z,11.50
2023-01-25T19:27:06.179Z,10.63
2023-01-25T19:29:34.744Z,10.67
2023-01-25T19:32:03.310Z,11.63
2023-01-25T19:34:32.040Z,10.77
2023-01-25T19:37:00.636Z,11.97
2023-01-25T19:39:30.709Z,11.90
2023-01-25T19:41:59.356Z,11.90
2023-01-25T19:44:28.035Z,11.67
2023-01-25T19:46:56.615Z,11.27
2023-01-25T19:49:25.162Z,10.53
2023-01-25T19:51:53.865Z,10.70
2023-01-25T19:54:24.000Z,11.27
2023-01-25T19:56:53.945Z,9.50
2023-01-25T19:59:24.762Z,10.97
2023-01-25T20:01:53.527Z,12.03
2023-01-25T20:04:23.530Z,13.67
2023-01-25T20:06:52.542Z,12.77
2023-01-25T20:09:28.241Z,12.40
2023-01-25T20:12:00.495Z,14.00
2023-01-25T20:14:29.056Z,13.07
2023-01-25T20:16:57.672Z,12.80
2023-01-25T20:19:26.343Z,12.93
2023-01-25T20:21:54.852Z,12.03
2023-01-25T20:24:23.865Z,12.43
2023-01-25T20:26:52.495Z,12.43
2023-01-25T20:29:23.805Z,12.70
2023-01-25T20:31:52.945Z,12.03
2023-01-25T20:34:22.987Z,12.50
2023-01-25T20:36:52.303Z,13.00
2023-01-25T20:39:21.794Z,11.97
2023-01-25T20:41:53.141Z,11.60
2023-01-25T20:44:23.043Z,11.83
2023-01-25T20:46:52.940Z,10.50
2023-01-25T20:49:21.599Z,10.43
2023-01-25T20:51:50.222Z,10.90
2023-01-25T20:54:20.542Z,10.40
2023-01-25T20:56:50.244Z,9.63
2023-01-25T20:59:19.267Z,10.00
2023-01-25T21:01:50.190Z,10.73
2023-01-25T21:04:18.832Z,11.03
2023-01-25T21:06:47.424Z,10.87
2023-01-25T21:09:16.060Z,10.30
2023-01-25T21:11:44.693Z,9.40
2023-01-25T21:14:13.428Z,9.80
2023-01-25T21:16:42.035Z,9.73
2023-01-25T21:19:12.180Z,10.27
2023-01-25T21:21:40.834Z,10.83
2023-01-25T21:24:11.783Z,10.07
2023-01-25T21:26:40.514Z,10.67
2023-01-25T21:29:09.440Z,10.47
2023-01-25T21:31:38.949Z,11.23
2023-01-25T21:34:09.106Z,10.27
2023-01-25T21:36:39.168Z,9.87
2023-01-25T21:39:07.906Z,10.17
2023-01-25T21:41:36.693Z,10.03
2023-01-25T21:44:22.943Z,9.67
2023-01-25T21:47:19.792Z,9.67
2023-01-25T21:49:58.043Z,10.43
2023-01-25T21:52:27.904Z,10.03
2023-01-25T21:54:56.519Z,10.43
2023-01-25T21:57:25.174Z,10.60
2023-01-25T21:59:54.436Z,10.13
2023-01-25T22:02:23.201Z,10.70
2023-01-25T22:04:51.900Z,10.50
2023-01-25T22:07:20.695Z,9.43
2023-01-25T22:09:50.648Z,10.60
2023-01-25T22:12:19.383Z,9.17
2023-01-25T22:14:48.057Z,9.70
2023-01-25T22:17:18.797Z,10.00
2023-01-25T22:19:47.339Z,9.27
2023-01-25T22:22:15.948Z,9.20
2023-01-25T22:24:44.530Z,9.50
2023-01-25T22:27:33.575Z,9.80
2023-01-25T22:30:02.122Z,9.37
2023-01-25T22:32:30.704Z,9.50
2023-01-25T22:34:59.309Z,9.63
2023-01-25T22:37:27.893Z,11.67
2023-01-25T22:39:58.355Z,10.00
2023-01-25T22:42:27.164Z,11.63
2023-01-25T22:44:57.183Z,12.13
2023-01-25T22:47:25.710Z,10.23
2023-01-25T22:49:54.271Z,10.70
2023-01-25T22:52:23.279Z,10.30
2023-01-25T22:54:52.751Z,11.50
2023-01-25T22:57:21.283Z,11.23
2023-01-25T22:59:49.901Z,12.00
2023-01-25T23:02:19.795Z,12.40
2023-01-25T23:04:48.449Z,12.60
2023-01-25T23:07:18.561Z,12.77
2023-01-25T23:09:51.233Z,13.20
2023-01-25T23:12:20.012Z,12.97
2023-01-25T23:14:51.131Z,13.23
2023-01-25T23:17:39.099Z,13.47
2023-01-25T23:20:08.793Z,13.07
2023-01-25T23:22:37.584Z,12.70
2023-01-25T23:25:06.726Z,13.50
2023-01-25T23:27:35.350Z,14.80
2023-01-25T23:30:04.831Z,15.20
2023-01-25T23:32:34.784Z,13.63
2023-01-25T23:35:03.306Z,15.13
2023-01-25T23:37:31.836Z,13.57
2023-01-25T23:40:00.361Z,14.07
2023-01-25T23:42:28.991Z,14.03
2023-01-25T23:44:57.625Z,14.63
2023-01-25T23:47:26.199Z,14.50
2023-01-25T23:49:56.148Z,14.63
2023-01-25T23:52:24.872Z,15.43
2023-01-25T23:54:53.389Z,16.20
2023-01-25T23:57:21.925Z,15.67
2023-01-25T23:59:50.465Z,15.07
